Airport ID:KSMD
Update Time (UTC):08/07/2020 23:06
Wind Speed (Knots):0
Wind Direction (Magnetic):250
Temperature (°C):25
Dew Point (°C):21.7
Humidity (%):80.9
Altimeter (inHg):29.92
Density Altitude (Feet):02500
Visibility (Miles):10
Clouds (Hundreds of feet):CLR
Present Weather:
METAR:METAR KSMD 082305Z AUTO 00000KT 10SM CLR 25/22 A2992 RMK A01

The data displayed is for advisory purposes only and is not to be used for flight planning or operations.